Time;durP1;ratioP1;P1;durP2;ratioP2;P2;SDS_P1;SDS_P2;PMS_P1;PMS_P2;Temp;Humidity;BMP_temperature;BMP_pressure;BME280_temperature;BME280_humidity;BME280_pressure;Samples;Min_cycle;Max_cycle;Signal;HPM_P1;HPM_P2
2023/01/14 00:02:09;;;;;;;;;;;;;;;8.63;96.82;100623.78;5084538;28;19908;-60
2023/01/14 00:04:34;;;;;;;;;;;;;;;8.68;96.51;100627.22;5068313;28;20406;-60
2023/01/14 00:07:01;;;;;;;;;;;;;;;8.68;96.75;100629.88;5066418;28;20016;-60
2023/01/14 00:09:29;;;;;;;;;;;;;;;8.75;96.85;100626.22;5067492;28;20387;-60
2023/01/14 00:11:54;;;;;;;;;;;;;;;8.77;96.86;100627.06;5052151;28;19925;-60
2023/01/14 00:14:21;;;;;;;;;;;;;;;8.77;97.04;100624.41;5054882;28;19920;-60
2023/01/14 00:16:47;;;;;;;;;;;;;;;8.76;96.97;100618.25;5073046;28;20280;-60
2023/01/14 00:19:13;;;;;;;;;;;;;;;8.72;97.44;100611.25;5073165;28;19919;-60
2023/01/14 00:21:40;;;;;;;;;;;;;;;8.75;97.50;100620.91;5062406;28;20333;-60
2023/01/14 00:24:06;;;;;;;;;;;;;;;8.69;97.56;100610.41;5052810;28;19938;-60
2023/01/14 00:26:32;;;;;;;;;;;;;;;8.71;97.03;100619.22;5054266;28;19948;-60
2023/01/14 00:28:57;;;;;;;;;;;;;;;8.65;98.06;100619.31;5072135;28;20300;-60
2023/01/14 00:31:24;;;;;;;;;;;;;;;8.57;98.51;100627.38;5073179;28;19966;-60
2023/01/14 00:33:49;;;;;;;;;;;;;;;8.60;99.36;100622.03;5072971;28;20376;-60
2023/01/14 00:36:19;;;;;;;;;;;;;;;8.60;99.16;100626.47;5067884;28;19923;-60
2023/01/14 00:38:44;;;;;;;;;;;;;;;8.66;99.12;100627.25;5052882;28;19916;-60
2023/01/14 00:41:11;;;;;;;;;;;;;;;8.64;99.21;100617.56;5052528;28;19912;-60
2023/01/14 00:43:37;;;;;;;;;;;;;;;8.67;99.49;100629.00;5064555;28;20368;-60
2023/01/14 00:46:05;;;;;;;;;;;;;;;8.67;99.55;100629.00;5072830;28;19908;-60
2023/01/14 00:48:30;;;;;;;;;;;;;;;8.42;99.83;100594.94;5068465;28;20814;-60
2023/01/14 00:50:56;;;;;;;;;;;;;;;8.61;100.00;100636.16;5072727;28;20006;-60
2023/01/14 00:53:21;;;;;;;;;;;;;;;8.59;100.00;100636.19;5070408;28;20273;-60
2023/01/14 00:55:46;;;;;;;;;;;;;;;8.65;100.00;100641.41;5054246;28;20312;-60
2023/01/14 00:58:11;;;;;;;;;;;;;;;8.72;100.00;100634.22;5051913;28;20320;-60
2023/01/14 01:00:37;;;;;;;;;;;;;;;8.76;100.00;100638.59;5053832;28;19920;-60
2023/01/14 01:03:02;;;;;;;;;;;;;;;8.84;99.48;100631.38;5053841;28;19916;-60
2023/01/14 01:05:27;;;;;;;;;;;;;;;8.87;98.98;100626.03;5069297;28;19916;-60
2023/01/14 01:07:52;;;;;;;;;;;;;;;8.91;98.55;100627.75;5052717;28;19923;-60
2023/01/14 01:10:18;;;;;;;;;;;;;;;8.96;97.99;100625.91;5051467;28;19948;-60
2023/01/14 01:12:43;;;;;;;;;;;;;;;9.02;96.73;100636.41;5054177;28;19919;-60
2023/01/14 01:15:08;;;;;;;;;;;;;;;9.06;96.63;100643.41;5052238;28;19959;-60
2023/01/14 01:17:34;;;;;;;;;;;;;;;9.04;96.29;100630.16;5059465;28;19916;-60
2023/01/14 01:19:59;;;;;;;;;;;;;;;9.04;95.73;100626.63;5052101;28;20340;-60
2023/01/14 01:22:24;;;;;;;;;;;;;;;9.04;94.79;100623.97;5051999;28;20391;-60
2023/01/14 01:24:53;;;;;;;;;;;;;;;9.09;94.73;100622.13;5053464;28;19917;-59
2023/01/14 01:27:18;;;;;;;;;;;;;;;9.10;94.16;100621.22;5051023;28;19936;-60
2023/01/14 01:29:43;;;;;;;;;;;;;;;9.10;94.38;100618.56;5065218;28;20307;-60
2023/01/14 01:32:09;;;;;;;;;;;;;;;9.05;94.27;100604.50;5066575;28;19965;-60
2023/01/14 01:34:34;;;;;;;;;;;;;;;9.02;93.82;100613.41;5070780;28;19912;-60
2023/01/14 01:36:59;;;;;;;;;;;;;;;8.98;93.52;100597.53;5066155;28;20352;-60
2023/01/14 01:39:24;;;;;;;;;;;;;;;9.01;93.79;100602.81;5071447;28;19912;-60
2023/01/14 01:41:50;;;;;;;;;;;;;;;9.01;93.59;100601.00;5067666;28;19912;-59
2023/01/14 01:44:15;;;;;;;;;;;;;;;9.04;92.89;100610.72;5051869;28;20058;-60
2023/01/14 01:46:41;;;;;;;;;;;;;;;9.10;91.99;100606.19;5053405;28;19925;-60
2023/01/14 01:49:11;;;;;;;;;;;;;;;9.12;91.74;100600.84;5056936;28;20357;-60
2023/01/14 01:51:43;;;;;;;;;;;;;;;9.16;91.45;100602.53;5051537;28;20407;-60
2023/01/14 01:54:08;;;;;;;;;;;;;;;9.19;91.05;100597.19;5053822;28;19913;-60
2023/01/14 01:56:36;;;;;;;;;;;;;;;9.18;90.02;100596.31;5060523;28;20395;-60
2023/01/14 01:59:04;;;;;;;;;;;;;;;9.22;89.03;100597.13;5067468;28;19976;-60
2023/01/14 02:01:29;;;;;;;;;;;;;;;9.26;88.68;100598.81;5061990;28;19913;-58
2023/01/14 02:03:55;;;;;;;;;;;;;;;9.27;87.65;100603.22;5060791;28;20415;-59
2023/01/14 02:06:20;;;;;;;;;;;;;;;9.34;87.57;100615.47;5069536;28;19923;-58
2023/01/14 02:08:50;;;;;;;;;;;;;;;9.39;87.79;100613.59;5053543;28;19912;-58
2023/01/14 02:11:33;;;;;;;;;;;;;;;9.40;87.10;100607.41;5065906;28;19912;-59
2023/01/14 02:14:25;;;;;;;;;;;;;;;9.42;86.38;100613.56;5067550;28;19912;-58
2023/01/14 02:16:50;;;;;;;;;;;;;;;9.43;87.10;100610.00;5039828;28;19913;-58
2023/01/14 02:19:15;;;;;;;;;;;;;;;9.43;86.63;100599.38;5071328;28;19912;-58
2023/01/14 02:21:53;;;;;;;;;;;;;;;9.46;85.76;100599.31;5068987;28;19916;-58
2023/01/14 02:24:21;;;;;;;;;;;;;;;9.45;85.49;100591.38;5070620;28;19956;-58
2023/01/14 02:26:57;;;;;;;;;;;;;;;9.46;85.15;100585.16;5070663;28;20364;-58
2023/01/14 02:29:37;;;;;;;;;;;;;;;9.44;84.60;100576.38;5053575;28;20040;-58
2023/01/14 02:32:18;;;;;;;;;;;;;;;9.49;84.23;100578.00;5050274;28;19916;-58
2023/01/14 02:34:46;;;;;;;;;;;;;;;9.51;84.52;100578.88;5068026;28;19966;-59
2023/01/14 02:37:21;;;;;;;;;;;;;;;9.48;84.91;100578.94;5069887;28;19927;-59
2023/01/14 02:39:46;;;;;;;;;;;;;;;9.50;84.58;100571.81;5071068;28;20316;-58
2023/01/14 02:45:06;;;;;;;;;;;;;;;9.50;85.96;100576.25;5059241;28;19923;-58
2023/01/14 02:47:32;;;;;;;;;;;;;;;9.56;86.69;100579.66;5063269;28;19916;-59
2023/01/14 02:49:59;;;;;;;;;;;;;;;9.49;87.19;100564.75;5056487;28;20354;-58
2023/01/14 02:52:25;;;;;;;;;;;;;;;9.42;87.16;100559.59;5052995;28;19932;-59
2023/01/14 02:55:00;;;;;;;;;;;;;;;9.40;87.63;100556.97;5055578;28;19919;-58
2023/01/14 02:57:48;;;;;;;;;;;;;;;9.34;88.23;100559.72;5052641;28;19924;-58
2023/01/14 03:00:26;;;;;;;;;;;;;;;9.29;88.48;100564.28;5053122;28;20292;-58
2023/01/14 03:03:03;;;;;;;;;;;;;;;9.29;89.08;100557.16;5072170;28;20001;-59
2023/01/14 03:05:44;;;;;;;;;;;;;;;9.29;89.70;100541.22;5074056;28;19951;-58
2023/01/14 03:08:33;;;;;;;;;;;;;;;9.28;89.04;100533.31;5074453;28;19909;-58
2023/01/14 03:11:00;;;;;;;;;;;;;;;9.26;89.08;100527.13;5065636;28;20299;-58
2023/01/14 03:13:44;;;;;;;;;;;;;;;9.28;89.79;100526.22;5073544;28;19959;-58
2023/01/14 03:16:17;;;;;;;;;;;;;;;9.19;89.53;100517.56;5061853;28;19917;-58
2023/01/14 03:18:48;;;;;;;;;;;;;;;9.19;89.47;100507.81;5054150;28;19920;-58
2023/01/14 03:21:34;;;;;;;;;;;;;;;9.19;89.99;100507.81;5056601;28;19928;-58
2023/01/14 03:24:13;;;;;;;;;;;;;;;9.23;89.93;100513.94;5053294;28;19915;-58
2023/01/14 03:26:39;;;;;;;;;;;;;;;9.22;89.76;100509.53;5053604;28;19909;-58
2023/01/14 03:29:07;;;;;;;;;;;;;;;9.17;89.51;100512.28;5060386;28;19916;-58
2023/01/14 03:31:35;;;;;;;;;;;;;;;9.15;89.75;100508.78;5073241;28;19916;-58
2023/01/14 03:34:04;;;;;;;;;;;;;;;9.15;90.41;100499.94;5070841;28;19924;-58
2023/01/14 03:36:32;;;;;;;;;;;;;;;9.13;89.84;100501.75;5073991;28;19908;-58
2023/01/14 03:38:57;;;;;;;;;;;;;;;9.09;90.00;100494.75;5076696;28;19911;-58
2023/01/14 03:44:10;;;;;;;;;;;;;;;9.04;90.82;100491.31;5061548;28;19966;-58
2023/01/14 03:46:36;;;;;;;;;;;;;;;8.99;90.93;100494.06;5054835;28;19908;-58
2023/01/14 03:49:01;;;;;;;;;;;;;;;8.96;91.57;100488.78;5068686;28;20284;-58
2023/01/14 03:51:42;;;;;;;;;;;;;;;8.90;91.83;100477.41;5053624;28;19917;-58
2023/01/14 03:54:07;;;;;;;;;;;;;;;8.93;91.99;100480.00;5064144;28;19912;-58
2023/01/14 03:56:38;;;;;;;;;;;;;;;8.90;92.39;100477.41;5070021;28;19942;-58
2023/01/14 03:59:20;;;;;;;;;;;;;;;8.77;92.52;100449.38;5073213;28;19912;-58
2023/01/14 04:01:49;;;;;;;;;;;;;;;8.83;93.04;100475.81;5062483;28;19919;-58
2023/01/14 04:04:14;;;;;;;;;;;;;;;8.85;92.92;100463.38;5065555;28;19916;-58
2023/01/14 04:06:40;;;;;;;;;;;;;;;8.81;93.57;100464.34;5073539;28;19913;-58
2023/01/14 04:09:06;;;;;;;;;;;;;;;8.84;94.20;100461.63;5072328;28;20267;-58
2023/01/14 04:11:31;;;;;;;;;;;;;;;8.84;94.04;100461.63;5057522;28;19925;-58
2023/01/14 04:16:40;;;;;;;;;;;;;;;8.79;94.48;100448.47;5073228;28;19915;-58
2023/01/14 04:19:06;;;;;;;;;;;;;;;8.79;94.93;100450.22;5072307;28;19916;-58
2023/01/14 04:21:31;;;;;;;;;;;;;;;8.76;95.49;100447.63;5072078;28;20411;-58
2023/01/14 04:23:56;;;;;;;;;;;;;;;8.77;95.54;100449.38;5073474;28;19962;-58
2023/01/14 04:26:21;;;;;;;;;;;;;;;8.77;95.81;100444.06;5073225;28;19913;-58
2023/01/14 04:28:47;;;;;;;;;;;;;;;8.77;95.84;100437.00;5067481;28;20399;-58
2023/01/14 04:31:12;;;;;;;;;;;;;;;8.80;96.02;100449.31;5056431;28;19944;-58
2023/01/14 04:33:37;;;;;;;;;;;;;;;8.79;96.41;100442.28;5072450;28;20360;-58
2023/01/14 04:36:02;;;;;;;;;;;;;;;8.76;96.39;100444.97;5052926;28;19955;-58
2023/01/14 04:38:28;;;;;;;;;;;;;;;8.73;97.04;100437.94;5052939;28;19912;-58
2023/01/14 04:40:54;;;;;;;;;;;;;;;8.74;96.88;100428.22;5053020;28;20230;-58
2023/01/14 04:43:20;;;;;;;;;;;;;;;8.75;97.15;100443.22;5056919;28;20007;-58
2023/01/14 04:45:49;;;;;;;;;;;;;;;8.70;97.60;100440.66;5072696;28;20066;-58
2023/01/14 04:48:15;;;;;;;;;;;;;;;8.71;97.53;100439.78;5071078;28;19991;-58
2023/01/14 04:50:44;;;;;;;;;;;;;;;8.72;97.99;100445.94;5054802;28;20495;-58
2023/01/14 04:53:12;;;;;;;;;;;;;;;8.70;98.22;100437.13;5052597;28;19919;-58
2023/01/14 04:55:38;;;;;;;;;;;;;;;8.73;98.29;100437.09;5054813;28;19913;-58
2023/01/14 04:58:04;;;;;;;;;;;;;;;8.74;98.25;100431.75;5051491;28;19928;-58
2023/01/14 05:00:30;;;;;;;;;;;;;;;8.75;98.07;100432.59;5052439;28;20311;-58
2023/01/14 05:02:55;;;;;;;;;;;;;;;8.75;97.97;100428.19;5053846;28;19928;-58
2023/01/14 05:05:20;;;;;;;;;;;;;;;8.71;98.12;100422.97;5057390;28;20131;-58
2023/01/14 05:07:46;;;;;;;;;;;;;;;8.76;98.17;100427.31;5052650;28;19916;-58
2023/01/14 05:10:11;;;;;;;;;;;;;;;8.74;97.45;100428.22;5052425;28;19999;-58
2023/01/14 05:12:36;;;;;;;;;;;;;;;8.71;98.24;100420.31;5052031;28;19917;-59
2023/01/14 05:15:02;;;;;;;;;;;;;;;8.68;98.14;100417.72;5036654;28;20398;-59
2023/01/14 05:17:27;;;;;;;;;;;;;;;8.65;98.26;100412.50;5060323;28;19913;-59
2023/01/14 05:19:52;;;;;;;;;;;;;;;8.64;98.46;100408.06;5072198;28;19948;-58
2023/01/14 05:22:17;;;;;;;;;;;;;;;8.65;97.94;100407.19;5069891;28;19909;-58
2023/01/14 05:24:43;;;;;;;;;;;;;;;8.63;98.58;100401.88;5052495;28;19923;-58
2023/01/14 05:27:08;;;;;;;;;;;;;;;8.64;98.08;100394.81;5051589;28;19909;-59
2023/01/14 05:29:33;;;;;;;;;;;;;;;8.57;98.63;100393.16;5054396;28;20027;-59
2023/01/14 05:31:59;;;;;;;;;;;;;;;8.58;98.40;100398.44;5052021;28;20499;-58
2023/01/14 05:34:24;;;;;;;;;;;;;;;8.63;98.47;100393.09;5054292;28;19913;-58
2023/01/14 05:36:49;;;;;;;;;;;;;;;8.64;98.19;100393.06;5051733;28;19917;-58
2023/01/14 05:39:15;;;;;;;;;;;;;;;8.64;98.52;100392.16;5051955;28;20348;-58
2023/01/14 05:45:37;;;;;;;;;;;;;;;8.63;98.12;100398.38;5052462;28;19912;-58
2023/01/14 05:47:09;;;;;;;;;;;;;;;8.78;98.17;100384.84;5071781;28;19954;-59
2023/01/14 05:49:34;;;;;;;;;;;;;;;8.83;97.75;100388.28;5061270;28;20325;-58
2023/01/14 05:52:00;;;;;;;;;;;;;;;8.86;97.13;100381.09;5062019;28;19970;-58
2023/01/14 05:54:25;;;;;;;;;;;;;;;8.91;96.70;100381.03;5069337;28;19919;-58
2023/01/14 05:56:50;;;;;;;;;;;;;;;8.99;95.97;100381.75;5068590;28;19925;-58
2023/01/14 05:59:15;;;;;;;;;;;;;;;9.05;95.54;100381.63;5071641;28;20011;-58
2023/01/14 06:07:17;;;;;;;;;;;;;;;9.27;94.54;100372.31;5047656;28;19916;-58
2023/01/14 06:09:42;;;;;;;;;;;;;;;9.27;93.80;100367.00;5050526;28;19917;-58
2023/01/14 06:12:07;;;;;;;;;;;;;;;9.29;93.28;100365.19;5051411;28;19966;-58
2023/01/14 06:14:33;;;;;;;;;;;;;;;9.30;93.36;100365.16;5070469;28;19958;-58
2023/01/14 06:16:58;;;;;;;;;;;;;;;9.40;93.05;100364.94;5066605;28;19916;-58
2023/01/14 06:19:24;;;;;;;;;;;;;;;9.40;92.93;100363.16;5072667;28;19909;-58
2023/01/14 06:21:49;;;;;;;;;;;;;;;9.41;93.05;100356.94;5066372;28;19948;-59
2023/01/14 06:24:15;;;;;;;;;;;;;;;9.43;93.33;100365.75;5050118;28;20083;-58
2023/01/14 06:26:40;;;;;;;;;;;;;;;9.42;92.91;100357.81;5050324;28;20002;-58
2023/01/14 06:29:07;;;;;;;;;;;;;;;9.44;92.73;100342.72;5066452;28;19908;-59
2023/01/14 06:31:33;;;;;;;;;;;;;;;9.44;92.73;100335.63;5061885;28;19990;-58
2023/01/14 06:34:01;;;;;;;;;;;;;;;9.46;91.74;100331.16;5050741;28;20335;-58
2023/01/14 06:36:26;;;;;;;;;;;;;;;9.50;92.18;100322.22;5050922;28;19968;-58
2023/01/14 06:38:52;;;;;;;;;;;;;;;9.51;92.15;100308.03;5069532;28;20361;-58
2023/01/14 06:41:17;;;;;;;;;;;;;;;9.58;92.25;100299.00;5071202;28;19931;-58
2023/01/14 06:43:42;;;;;;;;;;;;;;;9.56;91.92;100300.81;5070854;28;19912;-58
2023/01/14 06:46:12;;;;;;;;;;;;;;;9.62;92.77;100305.13;5066591;28;19942;-58
2023/01/14 06:48:37;;;;;;;;;;;;;;;9.61;91.99;100303.38;5069036;28;19919;-58
2023/01/14 06:51:04;;;;;;;;;;;;;;;9.69;93.26;100307.59;5070798;28;20006;-58
2023/01/14 06:53:29;;;;;;;;;;;;;;;9.71;93.58;100297.81;5053457;28;19924;-58
2023/01/14 06:55:59;;;;;;;;;;;;;;;9.72;94.18;100296.03;5051050;28;19912;-58
2023/01/14 06:58:24;;;;;;;;;;;;;;;9.73;94.72;100301.31;5057553;28;19922;-58
2023/01/14 07:00:53;;;;;;;;;;;;;;;9.73;94.21;100293.34;5063688;28;19912;-58
2023/01/14 07:03:19;;;;;;;;;;;;;;;9.74;94.33;100295.06;5052966;28;19914;-59
2023/01/14 07:05:45;;;;;;;;;;;;;;;9.74;94.04;100287.09;5068787;28;19916;-58
2023/01/14 07:08:10;;;;;;;;;;;;;;;9.75;94.19;100280.84;5070854;28;20351;-58
2023/01/14 07:10:35;;;;;;;;;;;;;;;9.83;93.70;100267.41;5060659;28;19913;-59
2023/01/14 07:13:01;;;;;;;;;;;;;;;9.81;94.11;100267.44;5050799;28;19970;-58
2023/01/14 07:15:26;;;;;;;;;;;;;;;9.80;93.40;100273.66;5050579;28;19916;-59
2023/01/14 07:17:51;;;;;;;;;;;;;;;9.83;93.16;100273.59;5062240;28;19996;-59
2023/01/14 07:20:17;;;;;;;;;;;;;;;9.87;92.89;100269.06;5060201;28;19912;-58
2023/01/14 07:22:42;;;;;;;;;;;;;;;9.86;92.89;100262.88;5053967;28;19972;-58
2023/01/14 07:25:08;;;;;;;;;;;;;;;9.88;92.99;100270.81;5053924;28;19909;-58
2023/01/14 07:27:33;;;;;;;;;;;;;;;9.90;92.32;100269.00;5071456;28;19956;-58
2023/01/14 07:29:59;;;;;;;;;;;;;;;9.93;92.13;100269.78;5074232;28;19908;-58
2023/01/14 07:32:24;;;;;;;;;;;;;;;9.94;92.74;100271.53;5065430;28;20249;-59
2023/01/14 07:34:49;;;;;;;;;;;;;;;9.95;92.67;100267.94;5054084;28;19917;-58
2023/01/14 07:37:15;;;;;;;;;;;;;;;9.97;92.65;100271.44;5054186;28;19909;-58
2023/01/14 07:39:40;;;;;;;;;;;;;;;10.03;91.52;100260.63;5058487;28;19938;-59
2023/01/14 07:42:05;;;;;;;;;;;;;;;10.04;91.81;100256.22;5053727;28;20014;-59
2023/01/14 07:44:31;;;;;;;;;;;;;;;10.03;91.71;100251.81;5071415;28;19924;-58
2023/01/14 07:46:57;;;;;;;;;;;;;;;10.06;91.21;100247.28;5073710;28;19908;-58
2023/01/14 07:49:22;;;;;;;;;;;;;;;10.10;90.70;100246.31;5061021;28;19913;-58
2023/01/14 07:51:48;;;;;;;;;;;;;;;10.15;91.40;100249.72;5058817;28;19916;-59
2023/01/14 07:54:13;;;;;;;;;;;;;;;10.18;91.09;100241.66;5066477;28;20405;-58
2023/01/14 07:56:38;;;;;;;;;;;;;;;10.21;91.30;100249.53;5068955;28;20299;-58
2023/01/14 07:59:04;;;;;;;;;;;;;;;10.13;90.59;100242.72;5070215;28;20433;-58
2023/01/14 08:01:29;;;;;;;;;;;;;;;10.14;91.74;100242.69;5053395;28;19912;-59
2023/01/14 08:03:54;;;;;;;;;;;;;;;10.10;90.84;100238.34;5062874;28;19919;-58
2023/01/14 08:06:20;;;;;;;;;;;;;;;10.09;91.66;100239.28;5073011;28;19920;-59
2023/01/14 08:08:45;;;;;;;;;;;;;;;10.12;91.09;100228.56;5073667;28;19931;-58
2023/01/14 08:11:10;;;;;;;;;;;;;;;10.17;91.07;100234.63;5066462;28;19923;-59
2023/01/14 08:13:35;;;;;;;;;;;;;;;10.16;91.26;100235.53;5053476;28;20004;-58
2023/01/14 08:16:01;;;;;;;;;;;;;;;10.25;92.36;100227.28;5068496;28;19922;-58
2023/01/14 08:18:29;;;;;;;;;;;;;;;10.31;91.43;100229.78;5058242;28;19912;-58
2023/01/14 08:20:58;;;;;;;;;;;;;;;10.30;92.01;100228.03;5056790;28;19916;-58
2023/01/14 08:23:23;;;;;;;;;;;;;;;10.32;91.95;100228.88;5073158;28;20399;-59
2023/01/14 08:25:49;;;;;;;;;;;;;;;10.30;91.71;100228.03;5075807;28;19918;-58
2023/01/14 08:28:14;;;;;;;;;;;;;;;10.34;91.29;100235.03;5073245;28;19915;-58
2023/01/14 08:30:39;;;;;;;;;;;;;;;10.39;91.45;100225.09;5070892;28;19985;-58
2023/01/14 08:33:04;;;;;;;;;;;;;;;10.43;90.34;100218.78;5072227;28;19939;-59
2023/01/14 08:35:30;;;;;;;;;;;;;;;10.49;90.06;100217.75;5072196;28;19908;-58
2023/01/14 08:37:55;;;;;;;;;;;;;;;10.52;90.24;100212.34;5070185;28;20335;-58
2023/01/14 08:40:20;;;;;;;;;;;;;;;10.46;90.86;100197.44;5054332;28;20144;-58
2023/01/14 08:42:46;;;;;;;;;;;;;;;10.43;91.04;100208.16;5052540;28;19924;-58
2023/01/14 08:45:12;;;;;;;;;;;;;;;10.44;90.48;100206.38;5065176;28;19962;-59
2023/01/14 08:47:37;;;;;;;;;;;;;;;10.52;90.23;100202.59;5071846;28;19995;-58
2023/01/14 08:50:03;;;;;;;;;;;;;;;10.60;89.20;100205.00;5072530;28;20306;-59
2023/01/14 08:52:31;;;;;;;;;;;;;;;10.62;88.96;100193.38;5071348;28;19924;-58
2023/01/14 08:54:56;;;;;;;;;;;;;;;10.71;87.65;100196.72;5054751;28;20288;-58
2023/01/14 08:57:21;;;;;;;;;;;;;;;10.86;87.51;100186.47;5052480;28;19925;-59
2023/01/14 08:59:47;;;;;;;;;;;;;;;10.91;88.03;100184.53;5062021;28;20401;-58
2023/01/14 09:02:16;;;;;;;;;;;;;;;10.91;86.67;100188.97;5056580;28;19940;-58
2023/01/14 09:04:41;;;;;;;;;;;;;;;10.88;86.48;100183.75;5057045;28;19920;-59
2023/01/14 09:18:02;;;;;;;;;;;;;;;10.76;87.61;100179.69;5061928;28;20031;-58
2023/01/14 09:20:38;;;;;;;;;;;;;;;10.83;87.26;100169.72;5052102;28;19987;-58
2023/01/14 09:23:05;;;;;;;;;;;;;;;10.87;87.18;100150.97;5052121;28;19952;-58
2023/01/14 09:25:30;;;;;;;;;;;;;;;10.79;87.53;100142.31;5068599;28;19916;-58
2023/01/14 09:27:55;;;;;;;;;;;;;;;10.82;86.74;100120.97;5071987;28;19915;-58
2023/01/14 09:30:21;;;;;;;;;;;;;;;10.94;86.71;100125.88;5063660;28;19912;-59
2023/01/14 09:32:46;;;;;;;;;;;;;;;11.00;86.11;100140.78;5051767;28;19913;-59
2023/01/14 09:35:12;;;;;;;;;;;;;;;11.02;85.86;100120.31;5067452;28;19909;-58
2023/01/14 09:37:37;;;;;;;;;;;;;;;11.13;86.16;100136.81;5054049;28;19919;-58
2023/01/14 09:40:03;;;;;;;;;;;;;;;11.20;85.05;100133.88;5052104;28;19909;-58
2023/01/14 09:42:28;;;;;;;;;;;;;;;11.25;84.76;100115.13;5059934;28;20213;-58
2023/01/14 09:45:00;;;;;;;;;;;;;;;11.25;84.20;100125.75;5071090;28;20390;-58
2023/01/14 09:47:25;;;;;;;;;;;;;;;11.38;84.74;100116.44;5069446;28;19964;-59
2023/01/14 09:49:51;;;;;;;;;;;;;;;11.44;84.93;100121.53;5052956;28;19966;-59
2023/01/14 09:52:35;;;;;;;;;;;;;;;11.49;84.26;100130.25;5064470;28;19961;-59
2023/01/14 09:55:06;;;;;;;;;;;;;;;11.61;83.40;100114.69;5058793;28;19951;-58
2023/01/14 09:57:50;;;;;;;;;;;;;;;11.75;83.58;100111.56;5063407;28;19928;-59
2023/01/14 10:00:33;;;;;;;;;;;;;;;11.76;83.24;100108.00;5070998;28;19938;-59
2023/01/14 10:03:17;;;;;;;;;;;;;;;11.69;83.19;100104.69;5068782;28;19912;-58
2023/01/14 10:05:45;;;;;;;;;;;;;;;11.77;83.46;100096.41;5070849;28;19927;-58
2023/01/14 10:08:13;;;;;;;;;;;;;;;11.83;83.69;100085.50;5070140;28;20386;-58
2023/01/14 10:10:39;;;;;;;;;;;;;;;11.85;82.66;100081.88;5070999;28;19994;-59
2023/01/14 10:13:14;;;;;;;;;;;;;;;11.82;83.87;100078.47;5070860;28;19915;-58
2023/01/14 10:15:49;;;;;;;;;;;;;;;11.82;83.54;100060.69;5070212;28;19969;-59
2023/01/14 10:18:36;;;;;;;;;;;;;;;11.78;84.03;100056.38;5058463;28;19969;-59
2023/01/14 10:21:04;;;;;;;;;;;;;;;11.86;84.18;100056.13;5050977;28;19917;-59
2023/01/14 10:23:32;;;;;;;;;;;;;;;11.85;84.25;100049.91;5058629;28;20288;-59
2023/01/14 10:25:58;;;;;;;;;;;;;;;11.81;83.99;100047.41;5053114;28;20300;-58
2023/01/14 10:28:27;;;;;;;;;;;;;;;11.83;84.30;100034.88;5063853;28;19908;-59
2023/01/14 10:30:53;;;;;;;;;;;;;;;11.82;84.93;100027.81;5067203;28;19916;-58
2023/01/14 10:33:21;;;;;;;;;;;;;;;11.80;85.46;100024.34;5067596;28;19912;-58
2023/01/14 10:35:48;;;;;;;;;;;;;;;11.77;84.67;100013.81;5067873;28;19939;-59
2023/01/14 10:38:20;;;;;;;;;;;;;;;11.76;84.83;100004.09;5071203;28;20352;-58
2023/01/14 10:40:46;;;;;;;;;;;;;;;11.78;85.59;100002.19;5070312;28;19912;-59
2023/01/14 10:43:21;;;;;;;;;;;;;;;11.79;84.67;99995.97;5055971;28;19924;-59
2023/01/14 10:45:46;;;;;;;;;;;;;;;11.85;84.45;99985.94;5050297;28;19919;-59
2023/01/14 10:48:16;;;;;;;;;;;;;;;11.89;84.51;99984.03;5064296;28;19912;-59
2023/01/14 10:50:41;;;;;;;;;;;;;;;11.92;84.41;99975.91;5067418;28;19921;-59
2023/01/14 10:53:14;;;;;;;;;;;;;;;11.89;84.07;99978.69;5051334;28;19924;-59
2023/01/14 10:55:45;;;;;;;;;;;;;;;11.95;84.24;99975.78;5050588;28;19997;-59
2023/01/14 10:58:14;;;;;;;;;;;;;;;11.96;83.85;99966.00;5056168;28;19927;-59
2023/01/14 11:00:41;;;;;;;;;;;;;;;11.99;83.73;99960.56;5067670;28;20394;-58
2023/01/14 11:03:17;;;;;;;;;;;;;;;11.91;83.01;99960.81;5070332;28;20328;-59
2023/01/14 11:05:42;;;;;;;;;;;;;;;11.94;83.02;99947.41;5074128;28;20677;-59
2023/01/14 11:08:14;;;;;;;;;;;;;;;11.98;82.51;99938.34;5073031;28;20003;-59
2023/01/14 11:10:40;;;;;;;;;;;;;;;11.95;82.87;99938.47;5056927;28;19958;-58
2023/01/14 11:13:16;;;;;;;;;;;;;;;11.96;82.78;99918.03;5053896;28;19908;-58
2023/01/14 11:15:45;;;;;;;;;;;;;;;11.98;82.87;99916.19;5054192;28;19998;-58
2023/01/14 11:18:20;;;;;;;;;;;;;;;11.92;82.62;99911.94;5064332;28;20801;-59
2023/01/14 11:20:51;;;;;;;;;;;;;;;11.97;81.79;99904.63;5067596;28;20005;-58
2023/01/14 11:23:23;;;;;;;;;;;;;;;12.03;82.12;99903.50;5065673;28;20405;-59
2023/01/14 11:25:49;;;;;;;;;;;;;;;12.07;81.34;99900.69;5053436;28;19955;-59
2023/01/14 11:28:14;;;;;;;;;;;;;;;12.12;80.67;99892.47;5052226;28;19972;-59
2023/01/14 11:30:42;;;;;;;;;;;;;;;12.17;80.45;99880.72;5062209;28;19916;-58
2023/01/14 11:33:16;;;;;;;;;;;;;;;12.19;78.78;99876.16;5064555;28;20413;-59
2023/01/14 11:35:48;;;;;;;;;;;;;;;12.20;78.91;99853.91;5057381;28;19916;-59
2023/01/14 11:38:15;;;;;;;;;;;;;;;12.20;79.70;99842.38;5072078;28;19912;-60
2023/01/14 11:43:25;;;;;;;;;;;;;;;12.30;77.91;99833.06;5061567;28;19927;-60
2023/01/14 11:46:10;;;;;;;;;;;;;;;12.24;77.78;99822.66;5053900;28;19955;-59
2023/01/14 11:48:35;;;;;;;;;;;;;;;12.31;77.31;99819.66;5071831;28;19908;-59
2023/01/14 11:51:04;;;;;;;;;;;;;;;12.30;76.83;99812.59;5051585;28;20426;-59
2023/01/14 11:53:41;;;;;;;;;;;;;;;12.37;77.92;99819.38;5053898;28;19932;-59
2023/01/14 11:56:08;;;;;;;;;;;;;;;12.38;77.71;99809.59;5068172;28;19909;-59
2023/01/14 11:58:34;;;;;;;;;;;;;;;12.32;77.53;99816.03;5053264;28;19925;-59
2023/01/14 12:01:04;;;;;;;;;;;;;;;12.43;76.69;99804.91;5052047;28;19951;-59
2023/01/14 12:03:52;;;;;;;;;;;;;;;12.38;77.42;99793.56;5071306;28;19912;-59
2023/01/14 12:06:23;;;;;;;;;;;;;;;12.36;77.30;99793.66;5068251;28;19994;-60
2023/01/14 12:08:54;;;;;;;;;;;;;;;12.41;77.47;99772.97;5068248;28;20024;-59
2023/01/14 12:11:23;;;;;;;;;;;;;;;12.41;76.17;99764.97;5060243;28;20367;-60
2023/01/14 12:17:01;;;;;;;;;;;;;;;12.46;75.56;99756.75;5053877;28;19922;-59
2023/01/14 12:19:44;;;;;;;;;;;;;;;12.45;76.44;99752.38;5020681;28;20371;-59
2023/01/14 12:22:17;;;;;;;;;;;;;;;12.52;74.84;99741.34;5054388;28;20596;-59
2023/01/14 12:25:00;;;;;;;;;;;;;;;12.52;74.02;99722.66;5062267;28;19955;-59
2023/01/14 12:27:44;;;;;;;;;;;;;;;12.67;74.74;99724.66;5074198;28;20003;-59
2023/01/14 12:30:15;;;;;;;;;;;;;;;12.70;73.27;99727.16;5055936;28;19908;-59
2023/01/14 12:32:44;;;;;;;;;;;;;;;12.78;74.10;99711.66;5067523;28;19924;-59
2023/01/14 12:35:13;;;;;;;;;;;;;;;12.74;72.40;99712.75;5065665;28;19908;-59
2023/01/14 12:37:51;;;;;;;;;;;;;;;12.83;73.43;99696.31;5069120;28;19935;-60
2023/01/14 12:45:44;;;;;;;;;;;;;;;13.15;71.20;99670.78;5053920;28;20384;-60
2023/01/14 12:48:11;;;;;;;;;;;;;;;13.15;68.71;99674.34;5065543;28;19908;-59
2023/01/14 12:50:42;;;;;;;;;;;;;;;13.17;68.44;99664.44;5055206;28;20276;-59
2023/01/14 12:53:14;;;;;;;;;;;;;;;13.27;68.95;99658.66;5051816;28;19917;-59
2023/01/14 12:55:40;;;;;;;;;;;;;;;13.19;69.12;99651.88;5050253;28;19973;-59
2023/01/14 12:58:06;;;;;;;;;;;;;;;13.22;69.75;99640.19;5067236;28;19920;-59
2023/01/14 13:00:36;;;;;;;;;;;;;;;13.16;68.66;99638.66;5054018;28;19917;-59
2023/01/14 13:03:07;;;;;;;;;;;;;;;13.13;69.23;99633.47;5053193;28;19912;-59
2023/01/14 13:05:34;;;;;;;;;;;;;;;13.07;68.26;99627.56;5070508;28;19920;-59
2023/01/14 13:08:01;;;;;;;;;;;;;;;13.01;68.51;99636.75;5067033;28;19955;-59
2023/01/14 13:10:30;;;;;;;;;;;;;;;12.97;67.79;99631.59;5059651;28;19912;-59
2023/01/14 13:12:55;;;;;;;;;;;;;;;12.94;68.04;99629.06;5056121;28;19927;-59
2023/01/14 13:15:20;;;;;;;;;;;;;;;12.90;67.32;99628.34;5054611;28;19912;-58
2023/01/14 13:17:56;;;;;;;;;;;;;;;12.97;68.49;99619.13;5070495;28;19918;-59
2023/01/14 13:20:37;;;;;;;;;;;;;;;12.95;67.42;99614.78;5061018;28;19959;-59
2023/01/14 13:23:03;;;;;;;;;;;;;;;12.96;68.17;99612.03;5070452;28;19988;-59
2023/01/14 13:25:35;;;;;;;;;;;;;;;12.89;67.63;99602.63;5064744;28;19912;-59
2023/01/14 13:28:12;;;;;;;;;;;;;;;12.84;67.29;99596.63;5050823;28;19909;-59
2023/01/14 13:30:41;;;;;;;;;;;;;;;12.86;67.44;99588.56;5050340;28;19943;-59